Details for Cathay Dragon at VHHH




Go Back


Latest METAR
Local Time

VHHH 061800Z 06009KT 9999 FEW012 SCT022 18/15 Q1015 NOSIG
07/04/2020, 02:25:29

Description
Results
Cathay Dragon Logo
Number of Pilots based at VHHH
1 Pilots Based here
Number of Cathay Dragon Flights Departed from VHHH
4 Flights Departed
Number of Cathay Dragon Flights Arrived at VHHH
4 Flights Arrived
Number of Cathay Dragon Schedules Departing from VHHH
118 Schedules
Number of Cathay Dragon Schedules Arriving at VHHH
128 Schedules
Number of Cathay Dragon Schedules Departing from VHHH availible today
88 Schedules Today
Number of Cathay Dragon Schedules Arriving at VHHH availible today
88 Schedules Today
Average Landing Rate at VHHH
-237 fpm
Cathay Dragon Average Landing Rate at VHHH
-227 fpm
Total Fuel Purchased at VHHH by Cathay Dragon
10,443.49 kgs / 23,023.72 lbs

Pilots Based at VHHH


Pilot ID
Pilot Name
Pilot Rank
No. of Flights
No. of Flying Hours
Janam Parikh
11
24.49